sensor_id;sensor_type;location;lat;lon;timestamp;pressure;altitude;pressure_sealevel;temperature
71649;BMP180;59492;45.638;11.714;2023-02-03T00:01:49;101919.00;;;17.76
71649;BMP180;59492;45.638;11.714;2023-02-03T00:04:15;101916.60;;;17.70
71649;BMP180;59492;45.638;11.714;2023-02-03T00:06:41;101927.80;;;17.70
71649;BMP180;59492;45.638;11.714;2023-02-03T00:09:07;101918.00;;;17.70
71649;BMP180;59492;45.638;11.714;2023-02-03T00:11:33;101915.40;;;17.70
71649;BMP180;59492;45.638;11.714;2023-02-03T00:14:02;101916.40;;;17.66
71649;BMP180;59492;45.638;11.714;2023-02-03T00:16:35;101926.00;;;17.62
71649;BMP180;59492;45.638;11.714;2023-02-03T00:19:01;101921.60;;;17.60
71649;BMP180;59492;45.638;11.714;2023-02-03T00:21:27;101924.60;;;17.60
71649;BMP180;59492;45.638;11.714;2023-02-03T00:23:53;101940.00;;;17.60
71649;BMP180;59492;45.638;11.714;2023-02-03T00:26:19;101928.80;;;17.58
71649;BMP180;59492;45.638;11.714;2023-02-03T00:28:45;101921.00;;;17.54
71649;BMP180;59492;45.638;11.714;2023-02-03T00:31:23;101918.60;;;17.50
71649;BMP180;59492;45.638;11.714;2023-02-03T00:33:57;101919.00;;;17.50
71649;BMP180;59492;45.638;11.714;2023-02-03T00:36:24;101909.80;;;17.50
71649;BMP180;59492;45.638;11.714;2023-02-03T00:38:50;101926.40;;;17.48
71649;BMP180;59492;45.638;11.714;2023-02-03T00:41:16;101922.40;;;17.48
71649;BMP180;59492;45.638;11.714;2023-02-03T00:43:42;101937.40;;;17.42
71649;BMP180;59492;45.638;11.714;2023-02-03T00:46:08;101927.40;;;17.40
71649;BMP180;59492;45.638;11.714;2023-02-03T00:48:33;101926.20;;;17.40
71649;BMP180;59492;45.638;11.714;2023-02-03T00:50:59;101943.40;;;17.40
71649;BMP180;59492;45.638;11.714;2023-02-03T00:53:25;101929.00;;;17.40
71649;BMP180;59492;45.638;11.714;2023-02-03T00:55:50;101928.80;;;17.36
71649;BMP180;59492;45.638;11.714;2023-02-03T00:58:16;101934.40;;;17.30
71649;BMP180;59492;45.638;11.714;2023-02-03T01:00:42;101937.40;;;17.32
71649;BMP180;59492;45.638;11.714;2023-02-03T01:03:08;101942.00;;;17.30
71649;BMP180;59492;45.638;11.714;2023-02-03T01:05:34;101935.20;;;17.30
71649;BMP180;59492;45.638;11.714;2023-02-03T01:08:01;101946.40;;;17.30
71649;BMP180;59492;45.638;11.714;2023-02-03T01:10:27;101948.60;;;17.30
71649;BMP180;59492;45.638;11.714;2023-02-03T01:12:53;101939.60;;;17.28
71649;BMP180;59492;45.638;11.714;2023-02-03T01:15:19;101942.00;;;17.26
71649;BMP180;59492;45.638;11.714;2023-02-03T01:17:44;101944.00;;;17.22
71649;BMP180;59492;45.638;11.714;2023-02-03T01:20:13;101934.20;;;17.20
71649;BMP180;59492;45.638;11.714;2023-02-03T01:22:43;101933.40;;;17.20
71649;BMP180;59492;45.638;11.714;2023-02-03T01:25:09;101941.40;;;17.20
71649;BMP180;59492;45.638;11.714;2023-02-03T01:27:35;101938.60;;;17.18
71649;BMP180;59492;45.638;11.714;2023-02-03T01:30:01;101931.60;;;17.18
71649;BMP180;59492;45.638;11.714;2023-02-03T01:32:26;101937.20;;;17.14
71649;BMP180;59492;45.638;11.714;2023-02-03T01:34:52;101930.60;;;17.10
71649;BMP180;59492;45.638;11.714;2023-02-03T01:37:26;101933.00;;;17.10
71649;BMP180;59492;45.638;11.714;2023-02-03T01:39:51;101930.60;;;17.10
71649;BMP180;59492;45.638;11.714;2023-02-03T01:42:17;101937.20;;;17.10
71649;BMP180;59492;45.638;11.714;2023-02-03T01:44:47;101942.20;;;17.10
71649;BMP180;59492;45.638;11.714;2023-02-03T01:47:30;101954.60;;;17.06
71649;BMP180;59492;45.638;11.714;2023-02-03T01:50:14;101964.00;;;17.00
71649;BMP180;59492;45.638;11.714;2023-02-03T01:52:43;101959.20;;;17.00
71649;BMP180;59492;45.638;11.714;2023-02-03T01:55:13;101957.80;;;17.00
71649;BMP180;59492;45.638;11.714;2023-02-03T01:58:10;101953.80;;;17.00
71649;BMP180;59492;45.638;11.714;2023-02-03T02:00:37;101932.40;;;16.94
71649;BMP180;59492;45.638;11.714;2023-02-03T02:03:04;101916.40;;;17.00
71649;BMP180;59492;45.638;11.714;2023-02-03T02:05:49;101916.60;;;16.96
71649;BMP180;59492;45.638;11.714;2023-02-03T02:08:19;101912.00;;;16.90
71649;BMP180;59492;45.638;11.714;2023-02-03T02:10:50;101915.60;;;16.90
71649;BMP180;59492;45.638;11.714;2023-02-03T02:13:21;101919.60;;;16.90
71649;BMP180;59492;45.638;11.714;2023-02-03T02:15:59;101929.60;;;16.90
71649;BMP180;59492;45.638;11.714;2023-02-03T02:27:50;101954.80;;;16.80
71649;BMP180;59492;45.638;11.714;2023-02-03T02:33:41;101961.60;;;16.70
71649;BMP180;59492;45.638;11.714;2023-02-03T02:36:31;101968.80;;;16.70
71649;BMP180;59492;45.638;11.714;2023-02-03T02:39:10;101971.00;;;16.70
71649;BMP180;59492;45.638;11.714;2023-02-03T02:42:01;101965.60;;;16.70
71649;BMP180;59492;45.638;11.714;2023-02-03T02:44:39;101956.20;;;16.70
71649;BMP180;59492;45.638;11.714;2023-02-03T02:47:28;101958.20;;;16.70
71649;BMP180;59492;45.638;11.714;2023-02-03T02:50:14;101962.00;;;16.70
71649;BMP180;59492;45.638;11.714;2023-02-03T02:52:57;101970.40;;;16.70
71649;BMP180;59492;45.638;11.714;2023-02-03T02:55:26;101973.60;;;16.70
71649;BMP180;59492;45.638;11.714;2023-02-03T02:58:01;101986.20;;;16.70
71649;BMP180;59492;45.638;11.714;2023-02-03T03:00:29;102000.60;;;16.70
71649;BMP180;59492;45.638;11.714;2023-02-03T03:02:55;102011.00;;;16.70
71649;BMP180;59492;45.638;11.714;2023-02-03T03:05:28;102016.00;;;16.70
71649;BMP180;59492;45.638;11.714;2023-02-03T03:07:57;102016.40;;;16.70
71649;BMP180;59492;45.638;11.714;2023-02-03T03:10:29;102019.60;;;16.70
71649;BMP180;59492;45.638;11.714;2023-02-03T03:13:00;102006.00;;;16.70
71649;BMP180;59492;45.638;11.714;2023-02-03T03:15:30;102004.00;;;16.70
71649;BMP180;59492;45.638;11.714;2023-02-03T03:18:23;102014.80;;;16.70
71649;BMP180;59492;45.638;11.714;2023-02-03T03:20:55;102017.60;;;16.60
71649;BMP180;59492;45.638;11.714;2023-02-03T03:23:28;102012.80;;;16.66
71649;BMP180;59492;45.638;11.714;2023-02-03T03:26:38;102026.60;;;16.62
71649;BMP180;59492;45.638;11.714;2023-02-03T03:28:49;102028.80;;;16.50
71649;BMP180;59492;45.638;11.714;2023-02-03T03:31:18;102030.00;;;16.58
71649;BMP180;59492;45.638;11.714;2023-02-03T03:33:58;102047.80;;;16.60
71649;BMP180;59492;45.638;11.714;2023-02-03T03:36:29;102055.00;;;16.58
71649;BMP180;59492;45.638;11.714;2023-02-03T03:39:04;102043.60;;;16.60
71649;BMP180;59492;45.638;11.714;2023-02-03T03:41:56;102044.20;;;16.60
71649;BMP180;59492;45.638;11.714;2023-02-03T03:44:28;102064.60;;;16.54
71649;BMP180;59492;45.638;11.714;2023-02-03T03:47:40;102076.00;;;16.56
71649;BMP180;59492;45.638;11.714;2023-02-03T03:50:09;102085.80;;;16.50
71649;BMP180;59492;45.638;11.714;2023-02-03T03:52:37;102079.80;;;16.52
71649;BMP180;59492;45.638;11.714;2023-02-03T03:55:07;102079.20;;;16.56
71649;BMP180;59492;45.638;11.714;2023-02-03T03:57:39;102085.40;;;16.54
71649;BMP180;59492;45.638;11.714;2023-02-03T04:00:08;102078.20;;;16.54
71649;BMP180;59492;45.638;11.714;2023-02-03T04:02:38;102081.80;;;16.50
71649;BMP180;59492;45.638;11.714;2023-02-03T04:05:05;102083.40;;;16.52
71649;BMP180;59492;45.638;11.714;2023-02-03T04:07:45;102085.00;;;16.50
71649;BMP180;59492;45.638;11.714;2023-02-03T04:10:23;102081.40;;;16.50
71649;BMP180;59492;45.638;11.714;2023-02-03T04:12:50;102079.80;;;16.50
71649;BMP180;59492;45.638;11.714;2023-02-03T04:15:15;102076.80;;;16.50
71649;BMP180;59492;45.638;11.714;2023-02-03T04:17:41;102067.80;;;16.50
71649;BMP180;59492;45.638;11.714;2023-02-03T04:20:07;102065.00;;;16.50
71649;BMP180;59492;45.638;11.714;2023-02-03T04:22:33;102063.40;;;16.50
71649;BMP180;59492;45.638;11.714;2023-02-03T04:24:59;102058.40;;;16.50
71649;BMP180;59492;45.638;11.714;2023-02-03T04:27:30;102061.00;;;16.50
71649;BMP180;59492;45.638;11.714;2023-02-03T04:29:59;102062.20;;;16.52
71649;BMP180;59492;45.638;11.714;2023-02-03T04:32:27;102059.80;;;16.60
71649;BMP180;59492;45.638;11.714;2023-02-03T04:34:57;102064.00;;;16.60
71649;BMP180;59492;45.638;11.714;2023-02-03T04:37:34;102068.60;;;16.60
71649;BMP180;59492;45.638;11.714;2023-02-03T04:40:05;102072.20;;;16.58
71649;BMP180;59492;45.638;11.714;2023-02-03T04:42:31;102065.60;;;16.54
71649;BMP180;59492;45.638;11.714;2023-02-03T04:45:00;102061.60;;;16.54
71649;BMP180;59492;45.638;11.714;2023-02-03T04:47:25;102066.40;;;16.52
71649;BMP180;59492;45.638;11.714;2023-02-03T04:49:51;102073.20;;;16.52
71649;BMP180;59492;45.638;11.714;2023-02-03T04:52:24;102066.40;;;16.52
71649;BMP180;59492;45.638;11.714;2023-02-03T04:54:50;102063.20;;;16.50
71649;BMP180;59492;45.638;11.714;2023-02-03T04:57:26;102058.00;;;16.40
71649;BMP180;59492;45.638;11.714;2023-02-03T05:00:14;102043.60;;;16.40
71649;BMP180;59492;45.638;11.714;2023-02-03T05:02:42;102044.80;;;16.40
71649;BMP180;59492;45.638;11.714;2023-02-03T05:05:10;102047.60;;;16.42
71649;BMP180;59492;45.638;11.714;2023-02-03T05:07:38;102053.80;;;16.44
71649;BMP180;59492;45.638;11.714;2023-02-03T05:10:10;102052.60;;;16.44
71649;BMP180;59492;45.638;11.714;2023-02-03T05:12:41;102049.60;;;16.40
71649;BMP180;59492;45.638;11.714;2023-02-03T05:15:27;102058.80;;;16.40
71649;BMP180;59492;45.638;11.714;2023-02-03T05:18:02;102067.20;;;16.40
71649;BMP180;59492;45.638;11.714;2023-02-03T05:20:38;102057.00;;;16.40
71649;BMP180;59492;45.638;11.714;2023-02-03T05:23:10;102050.60;;;16.40
71649;BMP180;59492;45.638;11.714;2023-02-03T05:25:45;102043.20;;;16.40
71649;BMP180;59492;45.638;11.714;2023-02-03T05:28:15;102043.00;;;16.40
71649;BMP180;59492;45.638;11.714;2023-02-03T05:30:49;102048.80;;;16.40
71649;BMP180;59492;45.638;11.714;2023-02-03T05:33:15;102040.20;;;16.40
71649;BMP180;59492;45.638;11.714;2023-02-03T05:35:44;102031.20;;;16.40
71649;BMP180;59492;45.638;11.714;2023-02-03T05:38:12;102036.20;;;16.40
71649;BMP180;59492;45.638;11.714;2023-02-03T05:40:42;102037.80;;;16.40
71649;BMP180;59492;45.638;11.714;2023-02-03T05:43:40;102043.80;;;16.32
71649;BMP180;59492;45.638;11.714;2023-02-03T05:46:23;102048.20;;;16.32
71649;BMP180;59492;45.638;11.714;2023-02-03T05:48:52;102061.40;;;16.30
71649;BMP180;59492;45.638;11.714;2023-02-03T05:51:20;102067.20;;;16.32
71649;BMP180;59492;45.638;11.714;2023-02-03T05:53:47;102061.60;;;16.34
71649;BMP180;59492;45.638;11.714;2023-02-03T05:56:24;102059.40;;;16.32
71649;BMP180;59492;45.638;11.714;2023-02-03T05:58:52;102056.80;;;16.30
71649;BMP180;59492;45.638;11.714;2023-02-03T06:01:20;102047.20;;;16.30
71649;BMP180;59492;45.638;11.714;2023-02-03T06:03:55;102045.60;;;16.30
71649;BMP180;59492;45.638;11.714;2023-02-03T06:06:24;102053.00;;;16.30
71649;BMP180;59492;45.638;11.714;2023-02-03T06:08:57;102050.20;;;16.30
71649;BMP180;59492;45.638;11.714;2023-02-03T06:11:26;102059.20;;;16.30
71649;BMP180;59492;45.638;11.714;2023-02-03T06:14:01;102047.00;;;16.30
71649;BMP180;59492;45.638;11.714;2023-02-03T06:16:28;102039.60;;;16.30
71649;BMP180;59492;45.638;11.714;2023-02-03T06:18:55;102036.20;;;16.30
71649;BMP180;59492;45.638;11.714;2023-02-03T06:21:28;102031.80;;;16.30
71649;BMP180;59492;45.638;11.714;2023-02-03T06:23:54;102036.40;;;16.30
71649;BMP180;59492;45.638;11.714;2023-02-03T06:26:21;102040.40;;;16.30
71649;BMP180;59492;45.638;11.714;2023-02-03T06:28:51;102034.60;;;16.28
71649;BMP180;59492;45.638;11.714;2023-02-03T06:31:25;102045.60;;;16.28
71649;BMP180;59492;45.638;11.714;2023-02-03T06:33:55;102063.80;;;16.26
71649;BMP180;59492;45.638;11.714;2023-02-03T06:36:21;102078.60;;;16.22
71649;BMP180;59492;45.638;11.714;2023-02-03T06:38:50;102089.00;;;16.26
71649;BMP180;59492;45.638;11.714;2023-02-03T06:41:16;102092.20;;;16.26
71649;BMP180;59492;45.638;11.714;2023-02-03T06:43:49;102089.40;;;16.24
71649;BMP180;59492;45.638;11.714;2023-02-03T06:46:18;102103.80;;;16.20
71649;BMP180;59492;45.638;11.714;2023-02-03T06:48:43;102095.60;;;16.10
71649;BMP180;59492;45.638;11.714;2023-02-03T06:51:27;102085.00;;;16.14
71649;BMP180;59492;45.638;11.714;2023-02-03T06:54:11;102090.40;;;16.12
71649;BMP180;59492;45.638;11.714;2023-02-03T06:56:37;102096.80;;;16.12
71649;BMP180;59492;45.638;11.714;2023-02-03T06:59:07;102082.20;;;16.10
71649;BMP180;59492;45.638;11.714;2023-02-03T07:01:37;102080.80;;;16.20
71649;BMP180;59492;45.638;11.714;2023-02-03T07:04:09;102085.80;;;16.20
71649;BMP180;59492;45.638;11.714;2023-02-03T07:06:35;102098.40;;;16.20
71649;BMP180;59492;45.638;11.714;2023-02-03T07:09:04;102094.40;;;16.22
71649;BMP180;59492;45.638;11.714;2023-02-03T07:11:33;102093.60;;;16.22
71649;BMP180;59492;45.638;11.714;2023-02-03T07:14:06;102081.60;;;16.20
71649;BMP180;59492;45.638;11.714;2023-02-03T07:16:32;102073.40;;;16.22
71649;BMP180;59492;45.638;11.714;2023-02-03T07:19:00;102073.40;;;16.22
71649;BMP180;59492;45.638;11.714;2023-02-03T07:21:26;102086.20;;;16.24
71649;BMP180;59492;45.638;11.714;2023-02-03T07:23:54;102096.00;;;16.24
71649;BMP180;59492;45.638;11.714;2023-02-03T07:26:25;102097.00;;;16.22
71649;BMP180;59492;45.638;11.714;2023-02-03T07:28:53;102103.80;;;16.20
71649;BMP180;59492;45.638;11.714;2023-02-03T07:31:31;102119.20;;;16.20
71649;BMP180;59492;45.638;11.714;2023-02-03T07:33:57;102118.40;;;16.20
71649;BMP180;59492;45.638;11.714;2023-02-03T07:36:23;102110.00;;;16.20
71649;BMP180;59492;45.638;11.714;2023-02-03T07:38:59;102110.00;;;16.20
71649;BMP180;59492;45.638;11.714;2023-02-03T07:41:24;102108.20;;;16.20
71649;BMP180;59492;45.638;11.714;2023-02-03T07:43:53;102105.20;;;16.20
71649;BMP180;59492;45.638;11.714;2023-02-03T07:46:31;102110.00;;;16.20
71649;BMP180;59492;45.638;11.714;2023-02-03T07:48:57;102106.40;;;16.22
71649;BMP180;59492;45.638;11.714;2023-02-03T07:51:23;102100.00;;;16.30
71649;BMP180;59492;45.638;11.714;2023-02-03T07:53:57;102110.20;;;16.30
71649;BMP180;59492;45.638;11.714;2023-02-03T07:56:25;102107.00;;;16.38
71649;BMP180;59492;45.638;11.714;2023-02-03T07:58:57;102103.20;;;16.40
71649;BMP180;59492;45.638;11.714;2023-02-03T08:01:23;102097.00;;;16.50
71649;BMP180;59492;45.638;11.714;2023-02-03T08:03:51;102094.00;;;16.50
71649;BMP180;59492;45.638;11.714;2023-02-03T08:06:22;102099.80;;;16.56
71649;BMP180;59492;45.638;11.714;2023-02-03T08:08:55;102106.60;;;16.60
71649;BMP180;59492;45.638;11.714;2023-02-03T08:11:23;102109.20;;;16.70
71649;BMP180;59492;45.638;11.714;2023-02-03T08:13:49;102109.20;;;16.80
71649;BMP180;59492;45.638;11.714;2023-02-03T08:16:15;102104.00;;;16.82
71649;BMP180;59492;45.638;11.714;2023-02-03T08:18:43;102094.20;;;16.90
71649;BMP180;59492;45.638;11.714;2023-02-03T08:21:12;102090.80;;;17.00
71649;BMP180;59492;45.638;11.714;2023-02-03T08:23:38;102094.60;;;17.00
71649;BMP180;59492;45.638;11.714;2023-02-03T08:26:04;102098.20;;;17.10
71649;BMP180;59492;45.638;11.714;2023-02-03T08:28:31;102100.80;;;17.10
71649;BMP180;59492;45.638;11.714;2023-02-03T08:30:58;102097.00;;;17.20
71649;BMP180;59492;45.638;11.714;2023-02-03T08:33:27;102096.80;;;17.30
71649;BMP180;59492;45.638;11.714;2023-02-03T08:35:54;102107.40;;;17.30
71649;BMP180;59492;45.638;11.714;2023-02-03T08:38:21;102098.60;;;17.40
71649;BMP180;59492;45.638;11.714;2023-02-03T08:40:46;102100.40;;;17.50
71649;BMP180;59492;45.638;11.714;2023-02-03T08:43:15;102106.60;;;17.60
71649;BMP180;59492;45.638;11.714;2023-02-03T08:45:41;102108.80;;;17.70
71649;BMP180;59492;45.638;11.714;2023-02-03T08:48:06;102114.40;;;17.80
71649;BMP180;59492;45.638;11.714;2023-02-03T08:50:32;102107.60;;;18.00
71649;BMP180;59492;45.638;11.714;2023-02-03T08:52:58;102103.20;;;18.10
71649;BMP180;59492;45.638;11.714;2023-02-03T08:55:23;102114.20;;;18.20
71649;BMP180;59492;45.638;11.714;2023-02-03T08:57:49;102109.00;;;18.30
71649;BMP180;59492;45.638;11.714;2023-02-03T09:00:15;102108.60;;;18.40
71649;BMP180;59492;45.638;11.714;2023-02-03T09:02:41;102113.00;;;18.50
71649;BMP180;59492;45.638;11.714;2023-02-03T09:05:07;102110.20;;;18.60
71649;BMP180;59492;45.638;11.714;2023-02-03T09:07:32;102111.40;;;18.64
71649;BMP180;59492;45.638;11.714;2023-02-03T09:09:58;102108.20;;;18.70
71649;BMP180;59492;45.638;11.714;2023-02-03T09:12:24;102100.80;;;18.70
71649;BMP180;59492;45.638;11.714;2023-02-03T09:14:49;102104.00;;;18.80
71649;BMP180;59492;45.638;11.714;2023-02-03T09:17:15;102105.00;;;18.84
71649;BMP180;59492;45.638;11.714;2023-02-03T09:19:41;102099.20;;;18.90
71649;BMP180;59492;45.638;11.714;2023-02-03T09:22:07;102098.20;;;19.00
71649;BMP180;59492;45.638;11.714;2023-02-03T09:24:32;102100.20;;;19.10
71649;BMP180;59492;45.638;11.714;2023-02-03T09:26:58;102099.60;;;19.12
71649;BMP180;59492;45.638;11.714;2023-02-03T09:29:25;102097.80;;;19.20
71649;BMP180;59492;45.638;11.714;2023-02-03T09:31:51;102099.60;;;19.30
71649;BMP180;59492;45.638;11.714;2023-02-03T09:34:18;102099.20;;;19.40
71649;BMP180;59492;45.638;11.714;2023-02-03T09:36:45;102101.80;;;19.40
71649;BMP180;59492;45.638;11.714;2023-02-03T09:39:11;102096.80;;;19.50
71649;BMP180;59492;45.638;11.714;2023-02-03T09:44:33;102101.80;;;19.64
71649;BMP180;59492;45.638;11.714;2023-02-03T09:47:13;102102.00;;;19.70
71649;BMP180;59492;45.638;11.714;2023-02-03T09:49:49;102116.20;;;19.74
71649;BMP180;59492;45.638;11.714;2023-02-03T09:52:24;102122.00;;;19.80
71649;BMP180;59492;45.638;11.714;2023-02-03T09:54:57;102120.60;;;19.80
71649;BMP180;59492;45.638;11.714;2023-02-03T09:57:28;102130.60;;;19.88
71649;BMP180;59492;45.638;11.714;2023-02-03T09:59:58;102125.00;;;19.90
71649;BMP180;59492;45.638;11.714;2023-02-03T10:10:32;102128.00;;;20.00
71649;BMP180;59492;45.638;11.714;2023-02-03T10:18:38;102119.00;;;20.10
71649;BMP180;59492;45.638;11.714;2023-02-03T10:21:31;102110.80;;;20.10
71649;BMP180;59492;45.638;11.714;2023-02-03T10:23:58;102105.60;;;20.10
71649;BMP180;59492;45.638;11.714;2023-02-03T10:26:26;102096.40;;;20.20
71649;BMP180;59492;45.638;11.714;2023-02-03T10:28:57;102091.40;;;20.14
71649;BMP180;59492;45.638;11.714;2023-02-03T10:31:31;102088.60;;;20.12
71649;BMP180;59492;45.638;11.714;2023-02-03T10:34:08;102082.60;;;20.10
71649;BMP180;59492;45.638;11.714;2023-02-03T10:36:55;102079.20;;;20.20
71649;BMP180;59492;45.638;11.714;2023-02-03T10:39:49;102073.40;;;20.20
71649;BMP180;59492;45.638;11.714;2023-02-03T10:42:16;102073.40;;;20.20
71649;BMP180;59492;45.638;11.714;2023-02-03T10:44:48;102072.20;;;20.20
71649;BMP180;59492;45.638;11.714;2023-02-03T10:49:51;102061.80;;;20.28
71649;BMP180;59492;45.638;11.714;2023-02-03T10:52:37;102053.00;;;20.30
71649;BMP180;59492;45.638;11.714;2023-02-03T10:55:29;102054.20;;;20.30
71649;BMP180;59492;45.638;11.714;2023-02-03T10:57:55;102044.80;;;20.30
71649;BMP180;59492;45.638;11.714;2023-02-03T11:00:30;102038.00;;;20.30
71649;BMP180;59492;45.638;11.714;2023-02-03T11:03:07;102030.00;;;20.30
71649;BMP180;59492;45.638;11.714;2023-02-03T11:05:41;102024.40;;;20.30
71649;BMP180;59492;45.638;11.714;2023-02-03T11:08:16;102017.00;;;20.30
71649;BMP180;59492;45.638;11.714;2023-02-03T11:10:42;102006.20;;;20.38
71649;BMP180;59492;45.638;11.714;2023-02-03T11:13:20;102007.60;;;20.40
71649;BMP180;59492;45.638;11.714;2023-02-03T11:21:28;102000.40;;;20.40
71649;BMP180;59492;45.638;11.714;2023-02-03T11:24:13;101999.80;;;20.40
71649;BMP180;59492;45.638;11.714;2023-02-03T11:26:49;101987.80;;;20.40
71649;BMP180;59492;45.638;11.714;2023-02-03T11:29:25;101985.80;;;20.40
71649;BMP180;59492;45.638;11.714;2023-02-03T11:31:54;101983.00;;;20.40
71649;BMP180;59492;45.638;11.714;2023-02-03T11:34:24;101980.60;;;20.40
71649;BMP180;59492;45.638;11.714;2023-02-03T11:36:51;101966.80;;;20.40
71649;BMP180;59492;45.638;11.714;2023-02-03T11:41:46;101961.80;;;20.40
71649;BMP180;59492;45.638;11.714;2023-02-03T11:44:18;101955.60;;;20.40
71649;BMP180;59492;45.638;11.714;2023-02-03T11:47:06;101952.60;;;20.40
71649;BMP180;59492;45.638;11.714;2023-02-03T11:52:31;101929.60;;;20.40
71649;BMP180;59492;45.638;11.714;2023-02-03T11:55:26;101918.00;;;20.40
71649;BMP180;59492;45.638;11.714;2023-02-03T12:00:53;101908.60;;;20.30
71649;BMP180;59492;45.638;11.714;2023-02-03T12:06:23;101906.80;;;20.30
71649;BMP180;59492;45.638;11.714;2023-02-03T12:08:58;101905.60;;;20.30
71649;BMP180;59492;45.638;11.714;2023-02-03T12:31:26;101862.20;;;20.00
71649;BMP180;59492;45.638;11.714;2023-02-03T12:34:18;101855.80;;;20.00
71649;BMP180;59492;45.638;11.714;2023-02-03T12:44:51;101831.00;;;19.86
71649;BMP180;59492;45.638;11.714;2023-02-03T12:47:30;101824.20;;;19.80
71649;BMP180;59492;45.638;11.714;2023-02-03T12:53:04;101815.60;;;19.78
71649;BMP180;59492;45.638;11.714;2023-02-03T13:00:55;101795.60;;;19.66
71649;BMP180;59492;45.638;11.714;2023-02-03T13:06:09;101795.20;;;19.60
71649;BMP180;59492;45.638;11.714;2023-02-03T13:11:23;101802.20;;;19.50
71649;BMP180;59492;45.638;11.714;2023-02-03T13:13:56;101796.00;;;19.50
71649;BMP180;59492;45.638;11.714;2023-02-03T13:16:27;101782.80;;;19.46
71649;BMP180;59492;45.638;11.714;2023-02-03T13:18:58;101768.80;;;19.40
71649;BMP180;59492;45.638;11.714;2023-02-03T13:21:27;101757.40;;;19.40
71649;BMP180;59492;45.638;11.714;2023-02-03T13:23:53;101759.80;;;19.40
71649;BMP180;59492;45.638;11.714;2023-02-03T13:42:31;101788.20;;;18.90
71649;BMP180;59492;45.638;11.714;2023-02-03T13:48:07;101774.60;;;18.88
71649;BMP180;59492;45.638;11.714;2023-02-03T13:50:35;101781.20;;;18.84
71649;BMP180;59492;45.638;11.714;2023-02-03T13:53:05;101782.20;;;18.82
71649;BMP180;59492;45.638;11.714;2023-02-03T13:55:38;101778.40;;;18.80
71649;BMP180;59492;45.638;11.714;2023-02-03T13:58:06;101783.40;;;18.80
71649;BMP180;59492;45.638;11.714;2023-02-03T14:05:58;101768.40;;;18.70
71649;BMP180;59492;45.638;11.714;2023-02-03T14:16:45;101770.40;;;18.60
71649;BMP180;59492;45.638;11.714;2023-02-03T14:21:57;101750.60;;;18.54
71649;BMP180;59492;45.638;11.714;2023-02-03T14:24:33;101759.20;;;18.50
71649;BMP180;59492;45.638;11.714;2023-02-03T14:27:01;101763.20;;;18.50
71649;BMP180;59492;45.638;11.714;2023-02-03T14:29:33;101765.00;;;18.50
71649;BMP180;59492;45.638;11.714;2023-02-03T14:32:04;101763.80;;;18.44
71649;BMP180;59492;45.638;11.714;2023-02-03T14:34:33;101758.20;;;18.40
71649;BMP180;59492;45.638;11.714;2023-02-03T14:37:29;101750.60;;;18.40
71649;BMP180;59492;45.638;11.714;2023-02-03T14:40:17;101755.60;;;18.32
71649;BMP180;59492;45.638;11.714;2023-02-03T14:43:11;101756.80;;;18.30
71649;BMP180;59492;45.638;11.714;2023-02-03T14:45:59;101752.80;;;18.30
71649;BMP180;59492;45.638;11.714;2023-02-03T14:48:45;101754.80;;;18.28
71649;BMP180;59492;45.638;11.714;2023-02-03T14:53:53;101740.60;;;18.20
71649;BMP180;59492;45.638;11.714;2023-02-03T14:58:58;101736.00;;;18.20
71649;BMP180;59492;45.638;11.714;2023-02-03T15:02:21;101727.60;;;18.16
71649;BMP180;59492;45.638;11.714;2023-02-03T15:04:21;101743.40;;;18.10
71649;BMP180;59492;45.638;11.714;2023-02-03T15:06:50;101741.80;;;18.10
71649;BMP180;59492;45.638;11.714;2023-02-03T15:09:33;101738.60;;;18.10
71649;BMP180;59492;45.638;11.714;2023-02-03T15:11:59;101740.80;;;18.02
71649;BMP180;59492;45.638;11.714;2023-02-03T15:14:28;101737.00;;;18.00
71649;BMP180;59492;45.638;11.714;2023-02-03T15:17:09;101735.60;;;18.00
71649;BMP180;59492;45.638;11.714;2023-02-03T15:19:40;101732.20;;;17.92
71649;BMP180;59492;45.638;11.714;2023-02-03T15:22:19;101726.40;;;17.90
71649;BMP180;59492;45.638;11.714;2023-02-03T15:24:45;101729.20;;;17.90
71649;BMP180;59492;45.638;11.714;2023-02-03T15:27:26;101730.60;;;17.90
71649;BMP180;59492;45.638;11.714;2023-02-03T15:29:52;101731.00;;;17.82
71649;BMP180;59492;45.638;11.714;2023-02-03T15:32:47;101738.40;;;17.82
71649;BMP180;59492;45.638;11.714;2023-02-03T15:35:17;101729.20;;;17.80
71649;BMP180;59492;45.638;11.714;2023-02-03T15:40:19;101725.60;;;17.78
71649;BMP180;59492;45.638;11.714;2023-02-03T15:42:56;101717.60;;;17.72
71649;BMP180;59492;45.638;11.714;2023-02-03T15:45:33;101698.80;;;17.70
71649;BMP180;59492;45.638;11.714;2023-02-03T15:48:27;101689.00;;;17.70
71649;BMP180;59492;45.638;11.714;2023-02-03T15:51:23;101698.60;;;17.60
71649;BMP180;59492;45.638;11.714;2023-02-03T15:56:47;101666.00;;;17.60
71649;BMP180;59492;45.638;11.714;2023-02-03T15:59:33;101675.80;;;17.60
71649;BMP180;59492;45.638;11.714;2023-02-03T16:02:05;101673.60;;;17.58
71649;BMP180;59492;45.638;11.714;2023-02-03T16:04:31;101666.40;;;17.58
71649;BMP180;59492;45.638;11.714;2023-02-03T16:06:58;101666.20;;;17.54
71649;BMP180;59492;45.638;11.714;2023-02-03T16:14:38;101668.20;;;17.52
71649;BMP180;59492;45.638;11.714;2023-02-03T16:17:12;101667.60;;;17.60
71649;BMP180;59492;45.638;11.714;2023-02-03T16:19:41;101663.60;;;17.60
71649;BMP180;59492;45.638;11.714;2023-02-03T16:22:27;101664.40;;;17.56
71649;BMP180;59492;45.638;11.714;2023-02-03T16:24:53;101671.00;;;17.50
71649;BMP180;59492;45.638;11.714;2023-02-03T16:33:15;101684.20;;;17.46
71649;BMP180;59492;45.638;11.714;2023-02-03T16:36:11;101681.20;;;17.40
71649;BMP180;59492;45.638;11.714;2023-02-03T16:38:57;101681.20;;;17.40